Hasse, Texas
Current Conditions -  °F | °C
As of 4:55 PM on Thursday 23 Oct 2014 (Local Time) from KMKN Reporting Station
Scattered Clouds Scattered Clouds  
Wind Chill: 81°   Ceiling: Unl
Heat Index: 82°   Visibility: 10mi
Dew Point: 61°   Wind: 7mph
Humidity: 49%   Direction: 120°ESE
Pressure: 30.07"   Gusts: NA
Location:  31.9079°N, 98.6578°W
Report Text: KMKN 232155Z AUTO 12006KT 10SM SCT060 SCT080 27/16 A3007 RMK AO2 T02740159
Loading
Personal Weather Stations






























Interactive Weather Map
Tropical Storm Tracking
New forecast layout! Learn more

10-Day Weather Forecast

Advertisements
Track Severe Weather on mobile